Time,TemperatureF,DewpointF,PressureIn,WindDirection,WindDirectionDegrees,WindSpeedMPH,WindSpeedGustMPH,Humidity,HourlyPrecipIn,Conditions,Clouds,dailyrainin,SolarRadiationWatts/m^2,SoftwareType,DateUTC
2013-06-02 00:12:00,48.0,24.0,-100.00,East,87,6.0,9.0,38,0.00,,,0.00,0.000000,,2013-06-02 06:12:00,
2013-06-02 00:21:00,48.0,24.0,-100.00,East,87,6.0,9.0,38,0.00,,,0.00,0.000000,,2013-06-02 06:21:00,
2013-06-02 00:32:00,48.0,24.0,-100.00,East,87,6.0,9.0,38,0.00,,,0.00,0.000000,,2013-06-02 06:32:00,
2013-06-02 00:41:00,48.0,24.0,-100.00,East,87,6.0,9.0,38,0.00,,,0.00,0.000000,,2013-06-02 06:41:00,
2013-06-02 01:11:00,45.0,25.0,-100.00,SE,133,9.0,11.0,46,0.00,,,0.00,0.000000,,2013-06-02 07:11:00,
2013-06-02 01:21:00,45.0,25.0,-100.00,SE,133,9.0,11.0,46,0.00,,,0.00,0.000000,,2013-06-02 07:21:00,
2013-06-02 01:31:00,45.0,25.0,-100.00,SE,133,9.0,11.0,46,0.00,,,0.00,0.000000,,2013-06-02 07:31:00,
2013-06-02 01:42:00,45.0,25.0,-100.00,SE,133,9.0,11.0,46,0.00,,,0.00,0.000000,,2013-06-02 07:42:00,
2013-06-02 02:11:00,45.0,25.0,-100.00,SE,146,12.0,14.0,46,0.00,,,0.00,0.000000,,2013-06-02 08:11:00,
2013-06-02 02:21:00,45.0,25.0,-100.00,SE,146,12.0,14.0,46,0.00,,,0.00,0.000000,,2013-06-02 08:21:00,
2013-06-02 02:31:00,45.0,25.0,-100.00,SE,146,12.0,14.0,46,0.00,,,0.00,0.000000,,2013-06-02 08:31:00,
2013-06-02 02:41:00,45.0,25.0,-100.00,SE,146,12.0,14.0,46,0.00,,,0.00,0.000000,,2013-06-02 08:41:00,
2013-06-02 03:11:00,42.0,25.0,-100.00,SE,130,11.0,15.0,50,0.00,,,0.00,0.000000,,2013-06-02 09:11:00,
2013-06-02 03:21:00,42.0,25.0,-100.00,SE,130,11.0,15.0,50,0.00,,,0.00,0.000000,,2013-06-02 09:21:00,
2013-06-02 03:33:00,42.0,25.0,-100.00,SE,130,11.0,15.0,50,0.00,,,0.00,0.000000,,2013-06-02 09:33:00,
2013-06-02 03:42:00,42.0,25.0,-100.00,SE,130,11.0,15.0,50,0.00,,,0.00,0.000000,,2013-06-02 09:42:00,
2013-06-02 04:12:00,41.0,25.0,-100.00,ESE,112,8.0,13.0,53,0.00,,,0.00,0.000000,,2013-06-02 10:12:00,
2013-06-02 04:22:00,41.0,25.0,-100.00,ESE,112,8.0,13.0,53,0.00,,,0.00,0.000000,,2013-06-02 10:22:00,
2013-06-02 04:32:00,41.0,25.0,-100.00,ESE,112,8.0,13.0,53,0.00,,,0.00,0.000000,,2013-06-02 10:32:00,
2013-06-02 04:41:00,41.0,25.0,-100.00,ESE,112,8.0,13.0,53,0.00,,,0.00,0.000000,,2013-06-02 10:41:00,
2013-06-02 05:12:00,40.0,24.0,-100.00,SE,141,8.0,12.0,52,0.00,,,0.00,0.000000,,2013-06-02 11:12:00,
2013-06-02 05:21:00,40.0,24.0,-100.00,SE,141,8.0,12.0,52,0.00,,,0.00,0.000000,,2013-06-02 11:21:00,
2013-06-02 05:32:00,40.0,24.0,-100.00,SE,141,8.0,12.0,52,0.00,,,0.00,0.000000,,2013-06-02 11:32:00,
2013-06-02 05:42:00,40.0,24.0,-100.00,SE,141,8.0,12.0,52,0.00,,,0.00,0.000000,,2013-06-02 11:42:00,
2013-06-02 06:11:00,40.0,23.0,-100.00,SE,129,7.0,11.0,51,0.00,,,0.00,1.000000,,2013-06-02 12:11:00,
2013-06-02 06:21:00,40.0,23.0,-100.00,SE,129,7.0,11.0,51,0.00,,,0.00,1.000000,,2013-06-02 12:21:00,
2013-06-02 06:31:00,40.0,23.0,-100.00,SE,129,7.0,11.0,51,0.00,,,0.00,1.000000,,2013-06-02 12:31:00,
2013-06-02 06:42:00,40.0,23.0,-100.00,SE,129,7.0,11.0,51,0.00,,,0.00,1.000000,,2013-06-02 12:42:00,
2013-06-02 07:11:00,44.0,23.0,-100.00,ESE,114,5.0,11.0,44,0.00,,,0.00,94.000000,,2013-06-02 13:11:00,
2013-06-02 07:21:00,44.0,23.0,-100.00,ESE,114,5.0,11.0,44,0.00,,,0.00,94.000000,,2013-06-02 13:21:00,
2013-06-02 07:32:00,44.0,23.0,-100.00,ESE,114,5.0,11.0,44,0.00,,,0.00,94.000000,,2013-06-02 13:32:00,
2013-06-02 07:41:00,44.0,23.0,-100.00,ESE,114,5.0,11.0,44,0.00,,,0.00,94.000000,,2013-06-02 13:41:00,
2013-06-02 08:11:00,50.0,25.0,-100.00,SE,142,3.0,9.0,38,0.00,,,0.00,333.000000,,2013-06-02 14:11:00,
2013-06-02 09:11:00,56.0,28.0,-100.00,SSE,148,2.0,7.0,34,-99.99,,,0.00,574.000000,,2013-06-02 15:11:00,
2013-06-02 09:21:00,56.0,28.0,-100.00,SSE,148,2.0,7.0,34,-99.99,,,0.00,574.000000,,2013-06-02 15:21:00,
2013-06-02 10:13:00,61.0,34.0,-100.00,NNW,342,2.0,9.0,36,-99.99,,,0.00,804.000000,,2013-06-02 16:13:00,
2013-06-02 10:23:00,61.0,34.0,-100.00,NNW,342,2.0,9.0,36,-99.99,,,0.00,804.000000,,2013-06-02 16:23:00,
2013-06-02 11:12:00,62.0,33.0,-100.00,NNW,342,6.0,9.0,34,0.00,,,0.00,1002.000000,,2013-06-02 17:12:00,
2013-06-02 11:22:00,62.0,33.0,-100.00,NNW,342,6.0,9.0,34,0.00,,,0.00,1002.000000,,2013-06-02 17:22:00,
2013-06-02 12:11:00,69.0,36.0,-100.00,North,360,5.0,9.0,30,0.00,,,0.00,1149.000000,,2013-06-02 18:11:00,
2013-06-02 13:11:00,73.0,31.0,-100.00,North,357,6.0,13.0,21,0.00,,,0.00,1230.000000,,2013-06-02 19:11:00,
2013-06-02 13:21:00,73.0,31.0,-100.00,North,357,6.0,13.0,21,0.00,,,0.00,1230.000000,,2013-06-02 19:21:00,
2013-06-02 13:32:00,73.0,31.0,-100.00,North,357,6.0,13.0,21,0.00,,,0.00,1230.000000,,2013-06-02 19:32:00,
2013-06-02 13:41:00,73.0,31.0,-100.00,North,357,6.0,13.0,21,0.00,,,0.00,1230.000000,,2013-06-02 19:41:00,
2013-06-02 14:11:00,73.0,24.0,-100.00,SSW,204,7.0,18.0,16,0.00,,,0.00,1243.000000,,2013-06-02 20:11:00,
2013-06-02 14:21:00,73.0,24.0,-100.00,SSW,204,7.0,18.0,16,0.00,,,0.00,1243.000000,,2013-06-02 20:21:00,
2013-06-02 14:32:00,73.0,24.0,-100.00,SSW,204,7.0,18.0,16,0.00,,,0.00,1243.000000,,2013-06-02 20:32:00,
2013-06-02 14:42:00,73.0,24.0,-100.00,SSW,204,7.0,18.0,16,0.00,,,0.00,1243.000000,,2013-06-02 20:42:00,
2013-06-02 15:11:00,74.0,25.0,-100.00,SSW,204,11.0,22.0,16,0.00,,,0.00,1190.000000,,2013-06-02 21:11:00,
2013-06-02 15:21:00,74.0,25.0,-100.00,SSW,204,11.0,22.0,16,0.00,,,0.00,1190.000000,,2013-06-02 21:21:00,
2013-06-02 15:33:00,74.0,25.0,-100.00,SSW,204,11.0,22.0,16,0.00,,,0.00,1190.000000,,2013-06-02 21:33:00,
2013-06-02 15:42:00,74.0,25.0,-100.00,SSW,204,11.0,22.0,16,0.00,,,0.00,1190.000000,,2013-06-02 21:42:00,
2013-06-02 16:12:00,74.0,23.0,-100.00,SSW,209,12.0,26.0,15,0.00,,,-99.99,1074.000000,,2013-06-02 22:12:00,
2013-06-02 16:23:00,74.0,23.0,-100.00,SSW,209,12.0,26.0,15,0.00,,,-99.99,1074.000000,,2013-06-02 22:23:00,
2013-06-02 16:33:00,74.0,23.0,-100.00,SSW,209,12.0,26.0,15,0.00,,,-99.99,1074.000000,,2013-06-02 22:33:00,
2013-06-02 16:42:00,74.0,23.0,-100.00,SSW,209,12.0,26.0,15,0.00,,,-99.99,1074.000000,,2013-06-02 22:42:00,
2013-06-02 17:12:00,74.0,22.0,-100.00,SW,232,7.0,22.0,14,0.00,,,0.00,688.000000,,2013-06-02 23:12:00,
2013-06-02 17:22:00,74.0,22.0,-100.00,SW,232,7.0,22.0,14,0.00,,,0.00,688.000000,,2013-06-02 23:22:00,
2013-06-02 17:32:00,74.0,22.0,-100.00,SW,232,7.0,22.0,14,0.00,,,0.00,688.000000,,2013-06-02 23:32:00,
2013-06-02 17:42:00,74.0,22.0,-100.00,SW,232,7.0,22.0,14,0.00,,,0.00,688.000000,,2013-06-02 23:42:00,
2013-06-02 18:11:00,70.0,20.0,-100.00,SSW,209,14.0,26.0,15,0.00,,,0.00,478.000000,,2013-06-03 00:11:00,
2013-06-02 18:21:00,70.0,20.0,-100.00,SSW,209,14.0,26.0,15,0.00,,,0.00,478.000000,,2013-06-03 00:21:00,
2013-06-02 18:32:00,70.0,20.0,-100.00,SSW,209,14.0,26.0,15,0.00,,,0.00,478.000000,,2013-06-03 00:32:00,
2013-06-02 18:42:00,70.0,20.0,-100.00,SSW,209,14.0,26.0,15,0.00,,,0.00,478.000000,,2013-06-03 00:42:00,
2013-06-02 19:11:00,70.0,20.0,-100.00,SW,215,14.0,23.0,15,0.00,,,0.00,494.000000,,2013-06-03 01:11:00,
2013-06-02 19:21:00,70.0,20.0,-100.00,SW,215,14.0,23.0,15,0.00,,,0.00,494.000000,,2013-06-03 01:21:00,
2013-06-02 19:32:00,70.0,20.0,-100.00,SW,215,14.0,23.0,15,0.00,,,0.00,494.000000,,2013-06-03 01:32:00,
2013-06-02 19:42:00,70.0,20.0,-100.00,SW,215,14.0,23.0,15,0.00,,,0.00,494.000000,,2013-06-03 01:42:00,
2013-06-02 20:12:00,68.0,17.0,-100.00,SW,234,10.0,21.0,14,0.00,,,0.00,268.000000,,2013-06-03 02:12:00,
2013-06-02 20:22:00,68.0,17.0,-100.00,SW,234,10.0,21.0,14,0.00,,,0.00,268.000000,,2013-06-03 02:22:00,
2013-06-02 20:32:00,68.0,17.0,-100.00,SW,234,10.0,21.0,14,0.00,,,0.00,268.000000,,2013-06-03 02:32:00,
2013-06-02 20:42:00,68.0,17.0,-100.00,SW,234,10.0,21.0,14,0.00,,,0.00,268.000000,,2013-06-03 02:42:00,
2013-06-02 21:12:00,64.0,17.0,-100.00,SW,219,13.0,19.0,16,0.00,,,0.00,38.000000,,2013-06-03 03:12:00,
2013-06-02 21:22:00,64.0,17.0,-100.00,SW,219,13.0,19.0,16,0.00,,,0.00,38.000000,,2013-06-03 03:22:00,
2013-06-02 21:33:00,64.0,17.0,-100.00,SW,219,13.0,19.0,16,0.00,,,0.00,38.000000,,2013-06-03 03:33:00,
2013-06-02 21:43:00,64.0,17.0,-100.00,SW,219,13.0,19.0,16,0.00,,,0.00,38.000000,,2013-06-03 03:43:00,
2013-06-02 22:12:00,62.0,18.0,-100.00,SW,214,11.0,18.0,18,0.00,,,0.00,0.000000,,2013-06-03 04:12:00,
2013-06-02 22:23:00,62.0,18.0,-100.00,SW,214,11.0,18.0,18,0.00,,,0.00,0.000000,,2013-06-03 04:23:00,
2013-06-02 22:33:00,62.0,18.0,-100.00,SW,214,11.0,18.0,18,0.00,,,0.00,0.000000,,2013-06-03 04:33:00,
2013-06-02 22:42:00,62.0,18.0,-100.00,SW,214,11.0,18.0,18,0.00,,,0.00,0.000000,,2013-06-03 04:42:00,
2013-06-02 23:12:00,58.0,21.0,-100.00,SSE,161,5.0,14.0,24,0.00,,,0.00,0.000000,,2013-06-03 05:12:00,
2013-06-02 23:22:00,58.0,21.0,-100.00,SSE,161,5.0,14.0,24,0.00,,,0.00,0.000000,,2013-06-03 05:22:00,
2013-06-02 23:32:00,58.0,21.0,-100.00,SSE,161,5.0,14.0,24,0.00,,,0.00,0.000000,,2013-06-03 05:32:00,
2013-06-02 23:42:00,58.0,21.0,-100.00,SSE,161,5.0,14.0,24,0.00,,,0.00,0.000000,,2013-06-03 05:42:00,